Pagrindinis puslapis
METAR-TAF:

METAR-TAF

Oro uostai :

Sarnia, Ontarijas, Kanada

platuma: 43-00N, ilguma: 082-19W, Aukštis: 181 m

Dabartinis oras

Ataskaita buvo paskelbta 43 minutes, ne 22:00 UTC
Vėjas 3 kt iš Šiaurės/Šiaurės Rytų
Temperatūra 14°C
Drėgmė 72%
Slėgis 1013 hPa
Matomumas: 14.5 km
Giedras dangus

METAR: CYZR 202200Z AUTO 03003KT 9SM CLR 14/09 A2992 RMK RVR MISG SLP135

Laikas: 18:43 (22:43 UTC)

Prognozė

Ataskaita buvo paskelbta 3 valandos ir 5 minutes, ne 19:38 UTC
Prognozė galioja nuo 20 metu 20 UTC su 21 metu 02 UTC
Vėjas 3 kt nuo kintamojo kryptimis
Matomumas: 10 km
Išsisklaidę debesys ne aukštis 8000 ft

TAF: CYZR 201938Z 2020/2102 VRB03KT P6SM SCT080 RMK FCST BASED ON AUTO OBS. NXT FCST WILL BE ISSUED AT 210745Z

Orai ataskaitas ir orų prognozės (METAR, TAF).

turimą stotys yra geltonos ir raudonos taškus žemėlapyje.

Perkelti pele per norėdami pamatyti stoties vardą.

Tada spustelėkite, norėdami matyti oro stebėjimo ir prognozės.

Norėdami pakeisti žemėlapį: spustelėkite ant žalios mygtukų su juodo kryžiaus žemyn,; žalią mygtuką su brūkšneliu, jei norite nutolinti; arba žalių rodyklių gretimoms žemėlapius.


METAR-TAF: